sensor_id;sensor_type;location;lat;lon;timestamp;pressure;altitude;pressure_sealevel;temperature;humidity
54554;BME280;40450;55.848;-3.572;2023-07-02T00:00:29;98191.47;;;12.01;80.23
54554;BME280;40450;55.848;-3.572;2023-07-02T00:03:01;98188.35;;;12.74;78.62
54554;BME280;40450;55.848;-3.572;2023-07-02T00:05:30;98186.33;;;12.45;79.45
54554;BME280;40450;55.848;-3.572;2023-07-02T00:08:01;98183.91;;;12.50;79.47
54554;BME280;40450;55.848;-3.572;2023-07-02T00:10:31;98190.31;;;11.44;82.12
54554;BME280;40450;55.848;-3.572;2023-07-02T00:13:02;98197.04;;;12.39;79.79
54554;BME280;40450;55.848;-3.572;2023-07-02T00:15:32;98202.08;;;12.31;79.21
54554;BME280;40450;55.848;-3.572;2023-07-02T00:18:02;98200.52;;;11.79;81.35
54554;BME280;40450;55.848;-3.572;2023-07-02T00:20:34;98204.66;;;10.99;83.69
54554;BME280;40450;55.848;-3.572;2023-07-02T00:23:03;98200.18;;;11.32;82.91
54554;BME280;40450;55.848;-3.572;2023-07-02T00:25:33;98207.20;;;11.71;81.76
54554;BME280;40450;55.848;-3.572;2023-07-02T00:28:03;98205.53;;;12.43;79.35
54554;BME280;40450;55.848;-3.572;2023-07-02T00:30:34;98207.85;;;12.50;79.16
54554;BME280;40450;55.848;-3.572;2023-07-02T00:33:03;98211.56;;;13.01;77.44
54554;BME280;40450;55.848;-3.572;2023-07-02T00:35:34;98204.88;;;13.00;77.21
54554;BME280;40450;55.848;-3.572;2023-07-02T00:38:04;98201.89;;;13.03;76.40
54554;BME280;40450;55.848;-3.572;2023-07-02T00:40:35;98197.08;;;12.70;77.56
54554;BME280;40450;55.848;-3.572;2023-07-02T00:43:05;98204.66;;;12.55;78.58
54554;BME280;40450;55.848;-3.572;2023-07-02T00:45:40;98202.61;;;13.21;76.33
54554;BME280;40450;55.848;-3.572;2023-07-02T00:48:11;98200.85;;;12.74;77.50
54554;BME280;40450;55.848;-3.572;2023-07-02T00:50:41;98206.07;;;12.43;78.80
54554;BME280;40450;55.848;-3.572;2023-07-02T00:53:11;98210.87;;;12.53;78.67
54554;BME280;40450;55.848;-3.572;2023-07-02T00:55:42;98205.25;;;12.88;77.58
54554;BME280;40450;55.848;-3.572;2023-07-02T00:58:12;98205.04;;;11.86;81.08
54554;BME280;40450;55.848;-3.572;2023-07-02T01:00:42;98212.54;;;11.40;82.51
54554;BME280;40450;55.848;-3.572;2023-07-02T01:03:08;98204.03;;;11.66;82.35
54554;BME280;40450;55.848;-3.572;2023-07-02T01:05:38;98204.51;;;10.96;84.69
54554;BME280;40450;55.848;-3.572;2023-07-02T01:08:08;98198.53;;;10.90;85.24
54554;BME280;40450;55.848;-3.572;2023-07-02T01:10:39;98203.54;;;11.92;82.61
54554;BME280;40450;55.848;-3.572;2023-07-02T01:13:14;98202.88;;;10.89;85.53
54554;BME280;40450;55.848;-3.572;2023-07-02T01:15:40;98202.87;;;11.80;83.29
54554;BME280;40450;55.848;-3.572;2023-07-02T01:18:15;98202.05;;;12.57;81.81
54554;BME280;40450;55.848;-3.572;2023-07-02T01:20:45;98209.03;;;12.65;81.28
54554;BME280;40450;55.848;-3.572;2023-07-02T01:23:15;98208.35;;;12.59;80.98
54554;BME280;40450;55.848;-3.572;2023-07-02T01:25:46;98204.34;;;12.62;80.19
54554;BME280;40450;55.848;-3.572;2023-07-02T01:28:11;98204.73;;;12.88;80.07
54554;BME280;40450;55.848;-3.572;2023-07-02T01:30:46;98213.67;;;12.81;79.90
54554;BME280;40450;55.848;-3.572;2023-07-02T01:33:17;98213.26;;;13.57;77.60
54554;BME280;40450;55.848;-3.572;2023-07-02T01:35:42;98217.85;;;12.30;79.80
54554;BME280;40450;55.848;-3.572;2023-07-02T01:38:12;98222.99;;;13.87;77.38
54554;BME280;40450;55.848;-3.572;2023-07-02T01:40:43;98222.70;;;14.20;75.41
54554;BME280;40450;55.848;-3.572;2023-07-02T01:43:13;98228.11;;;14.49;73.20
54554;BME280;40450;55.848;-3.572;2023-07-02T01:45:43;98229.45;;;14.12;74.06
54554;BME280;40450;55.848;-3.572;2023-07-02T01:48:14;98226.33;;;14.97;72.46
54554;BME280;40450;55.848;-3.572;2023-07-02T01:50:44;98235.08;;;14.18;73.54
54554;BME280;40450;55.848;-3.572;2023-07-02T01:53:15;98236.80;;;13.80;73.92
54554;BME280;40450;55.848;-3.572;2023-07-02T01:55:45;98233.39;;;13.64;74.87
54554;BME280;40450;55.848;-3.572;2023-07-02T01:58:15;98227.04;;;12.92;77.20
54554;BME280;40450;55.848;-3.572;2023-07-02T02:00:50;98231.51;;;13.95;75.09
54554;BME280;40450;55.848;-3.572;2023-07-02T02:03:17;98225.99;;;14.35;74.26
54554;BME280;40450;55.848;-3.572;2023-07-02T02:05:50;98226.91;;;14.08;73.82
54554;BME280;40450;55.848;-3.572;2023-07-02T02:08:18;98229.14;;;14.15;74.18
54554;BME280;40450;55.848;-3.572;2023-07-02T02:10:48;98231.60;;;13.95;74.37
54554;BME280;40450;55.848;-3.572;2023-07-02T02:13:17;98222.50;;;14.61;72.08
54554;BME280;40450;55.848;-3.572;2023-07-02T02:15:47;98227.31;;;14.14;73.43
54554;BME280;40450;55.848;-3.572;2023-07-02T02:18:18;98223.10;;;14.52;72.68
54554;BME280;40450;55.848;-3.572;2023-07-02T02:20:48;98228.09;;;14.26;72.65
54554;BME280;40450;55.848;-3.572;2023-07-02T02:23:25;98218.31;;;14.92;70.25
54554;BME280;40450;55.848;-3.572;2023-07-02T02:25:54;98225.58;;;13.18;74.61
54554;BME280;40450;55.848;-3.572;2023-07-02T02:28:19;98224.36;;;13.13;76.00
54554;BME280;40450;55.848;-3.572;2023-07-02T02:30:50;98230.44;;;13.69;74.92
54554;BME280;40450;55.848;-3.572;2023-07-02T02:33:21;98235.08;;;14.00;73.38
54554;BME280;40450;55.848;-3.572;2023-07-02T02:35:52;98232.84;;;13.82;74.17
54554;BME280;40450;55.848;-3.572;2023-07-02T02:38:26;98231.66;;;14.14;72.84
54554;BME280;40450;55.848;-3.572;2023-07-02T02:40:51;98230.56;;;14.11;73.25
54554;BME280;40450;55.848;-3.572;2023-07-02T02:43:22;98231.75;;;13.86;73.72
54554;BME280;40450;55.848;-3.572;2023-07-02T02:45:53;98236.96;;;12.61;77.25
54554;BME280;40450;55.848;-3.572;2023-07-02T02:48:22;98234.03;;;12.40;78.03
54554;BME280;40450;55.848;-3.572;2023-07-02T02:50:54;98227.09;;;13.41;75.34
54554;BME280;40450;55.848;-3.572;2023-07-02T02:53:23;98227.62;;;13.95;73.94
54554;BME280;40450;55.848;-3.572;2023-07-02T02:55:53;98233.56;;;14.00;73.13
54554;BME280;40450;55.848;-3.572;2023-07-02T02:58:26;98233.36;;;13.93;73.49
54554;BME280;40450;55.848;-3.572;2023-07-02T03:00:55;98227.03;;;13.64;74.23
54554;BME280;40450;55.848;-3.572;2023-07-02T03:03:24;98217.91;;;12.03;79.24
54554;BME280;40450;55.848;-3.572;2023-07-02T03:05:55;98228.39;;;12.94;77.28
54554;BME280;40450;55.848;-3.572;2023-07-02T03:08:26;98230.18;;;12.21;79.60
54554;BME280;40450;55.848;-3.572;2023-07-02T03:11:01;98230.52;;;12.43;78.61
54554;BME280;40450;55.848;-3.572;2023-07-02T03:13:26;98232.34;;;12.55;78.41
54554;BME280;40450;55.848;-3.572;2023-07-02T03:15:56;98231.57;;;12.51;78.40
54554;BME280;40450;55.848;-3.572;2023-07-02T03:18:27;98239.11;;;12.64;78.61
54554;BME280;40450;55.848;-3.572;2023-07-02T03:20:57;98233.35;;;10.78;83.27
54554;BME280;40450;55.848;-3.572;2023-07-02T03:23:27;98227.28;;;11.46;82.16
54554;BME280;40450;55.848;-3.572;2023-07-02T03:25:58;98225.45;;;12.52;79.77
54554;BME280;40450;55.848;-3.572;2023-07-02T03:28:30;98230.71;;;12.74;79.45
54554;BME280;40450;55.848;-3.572;2023-07-02T03:30:59;98222.54;;;13.13;77.14
54554;BME280;40450;55.848;-3.572;2023-07-02T03:33:29;98223.57;;;12.80;77.32
54554;BME280;40450;55.848;-3.572;2023-07-02T03:36:01;98223.59;;;12.68;78.23
54554;BME280;40450;55.848;-3.572;2023-07-02T03:38:31;98222.84;;;13.04;78.00
54554;BME280;40450;55.848;-3.572;2023-07-02T03:41:00;98214.72;;;13.32;77.39
54554;BME280;40450;55.848;-3.572;2023-07-02T03:43:30;98211.85;;;13.45;76.78
54554;BME280;40450;55.848;-3.572;2023-07-02T03:46:01;98218.72;;;13.34;76.86
54554;BME280;40450;55.848;-3.572;2023-07-02T03:48:31;98223.50;;;14.17;74.42
54554;BME280;40450;55.848;-3.572;2023-07-02T03:51:02;98233.33;;;13.56;75.63
54554;BME280;40450;55.848;-3.572;2023-07-02T03:53:33;98231.81;;;12.89;77.42
54554;BME280;40450;55.848;-3.572;2023-07-02T03:56:02;98231.21;;;13.19;76.58
54554;BME280;40450;55.848;-3.572;2023-07-02T03:58:32;98229.54;;;13.01;76.81
54554;BME280;40450;55.848;-3.572;2023-07-02T04:01:03;98223.01;;;13.58;74.79
54554;BME280;40450;55.848;-3.572;2023-07-02T04:03:34;98226.25;;;13.53;74.68
54554;BME280;40450;55.848;-3.572;2023-07-02T04:06:04;98218.15;;;14.52;72.84
54554;BME280;40450;55.848;-3.572;2023-07-02T04:08:35;98211.65;;;14.40;73.28
54554;BME280;40450;55.848;-3.572;2023-07-02T04:11:04;98216.84;;;13.62;75.01
54554;BME280;40450;55.848;-3.572;2023-07-02T04:13:34;98218.33;;;11.94;80.30
54554;BME280;40450;55.848;-3.572;2023-07-02T04:16:05;98213.19;;;13.19;77.41
54554;BME280;40450;55.848;-3.572;2023-07-02T04:18:40;98210.76;;;13.64;76.41
54554;BME280;40450;55.848;-3.572;2023-07-02T04:21:05;98203.44;;;13.46;76.88
54554;BME280;40450;55.848;-3.572;2023-07-02T04:23:36;98207.87;;;12.62;79.18
54554;BME280;40450;55.848;-3.572;2023-07-02T04:26:07;98207.77;;;12.36;80.07
54554;BME280;40450;55.848;-3.572;2023-07-02T04:28:36;98211.81;;;12.92;78.57
54554;BME280;40450;55.848;-3.572;2023-07-02T04:31:07;98214.60;;;12.68;79.50
54554;BME280;40450;55.848;-3.572;2023-07-02T04:33:39;98214.19;;;12.84;78.43
54554;BME280;40450;55.848;-3.572;2023-07-02T04:36:08;98210.49;;;12.74;78.30
54554;BME280;40450;55.848;-3.572;2023-07-02T04:38:38;98211.31;;;13.11;78.63
54554;BME280;40450;55.848;-3.572;2023-07-02T04:41:08;98214.79;;;12.75;78.78
54554;BME280;40450;55.848;-3.572;2023-07-02T04:43:38;98207.22;;;12.85;78.61
54554;BME280;40450;55.848;-3.572;2023-07-02T04:46:09;98203.75;;;12.90;78.78
54554;BME280;40450;55.848;-3.572;2023-07-02T04:48:39;98205.40;;;13.20;78.03
54554;BME280;40450;55.848;-3.572;2023-07-02T04:51:10;98205.54;;;12.96;78.47
54554;BME280;40450;55.848;-3.572;2023-07-02T04:53:40;98212.69;;;13.65;76.75
54554;BME280;40450;55.848;-3.572;2023-07-02T04:56:13;98221.67;;;13.92;74.92
54554;BME280;40450;55.848;-3.572;2023-07-02T04:58:40;98213.17;;;13.33;76.70
54554;BME280;40450;55.848;-3.572;2023-07-02T05:01:11;98222.23;;;11.59;81.49
54554;BME280;40450;55.848;-3.572;2023-07-02T05:03:43;98218.56;;;13.11;78.20
54554;BME280;40450;55.848;-3.572;2023-07-02T05:06:12;98218.27;;;12.72;77.98
54554;BME280;40450;55.848;-3.572;2023-07-02T05:08:43;98224.00;;;11.38;82.40
54554;BME280;40450;55.848;-3.572;2023-07-02T05:11:13;98224.48;;;11.73;80.87
54554;BME280;40450;55.848;-3.572;2023-07-02T05:13:44;98224.62;;;12.62;78.93
54554;BME280;40450;55.848;-3.572;2023-07-02T05:16:14;98228.36;;;12.80;77.89
54554;BME280;40450;55.848;-3.572;2023-07-02T05:18:44;98233.06;;;13.29;76.36
54554;BME280;40450;55.848;-3.572;2023-07-02T05:21:18;98238.70;;;12.32;79.29
54554;BME280;40450;55.848;-3.572;2023-07-02T05:23:45;98235.57;;;13.34;77.42
54554;BME280;40450;55.848;-3.572;2023-07-02T05:26:15;98240.55;;;13.34;76.88
54554;BME280;40450;55.848;-3.572;2023-07-02T05:28:45;98234.73;;;13.16;77.97
54554;BME280;40450;55.848;-3.572;2023-07-02T05:31:15;98228.50;;;13.00;77.95
54554;BME280;40450;55.848;-3.572;2023-07-02T05:33:46;98228.17;;;12.26;80.34
54554;BME280;40450;55.848;-3.572;2023-07-02T05:36:18;98222.58;;;12.34;79.07
54554;BME280;40450;55.848;-3.572;2023-07-02T05:38:52;98221.24;;;11.92;80.65
54554;BME280;40450;55.848;-3.572;2023-07-02T05:41:22;98223.88;;;12.17;80.46
54554;BME280;40450;55.848;-3.572;2023-07-02T05:43:48;98225.18;;;11.62;81.50
54554;BME280;40450;55.848;-3.572;2023-07-02T05:46:19;98227.02;;;12.43;79.07
54554;BME280;40450;55.848;-3.572;2023-07-02T05:48:49;98237.86;;;12.04;80.45
54554;BME280;40450;55.848;-3.572;2023-07-02T05:51:22;98232.17;;;11.73;81.56
54554;BME280;40450;55.848;-3.572;2023-07-02T05:53:50;98231.24;;;11.85;80.56
54554;BME280;40450;55.848;-3.572;2023-07-02T05:56:19;98228.55;;;12.31;79.60
54554;BME280;40450;55.848;-3.572;2023-07-02T05:58:50;98223.99;;;13.30;77.36
54554;BME280;40450;55.848;-3.572;2023-07-02T06:01:20;98224.77;;;12.79;78.54
54554;BME280;40450;55.848;-3.572;2023-07-02T06:03:51;98224.60;;;11.80;80.69
54554;BME280;40450;55.848;-3.572;2023-07-02T06:06:26;98229.33;;;13.22;78.00
54554;BME280;40450;55.848;-3.572;2023-07-02T06:08:52;98230.21;;;13.92;76.75
54554;BME280;40450;55.848;-3.572;2023-07-02T06:11:25;98228.75;;;13.07;77.42
54554;BME280;40450;55.848;-3.572;2023-07-02T06:13:52;98238.48;;;13.91;75.35
54554;BME280;40450;55.848;-3.572;2023-07-02T06:16:24;98229.43;;;14.46;74.00
54554;BME280;40450;55.848;-3.572;2023-07-02T06:18:53;98234.01;;;14.38;73.39
54554;BME280;40450;55.848;-3.572;2023-07-02T06:21:23;98234.80;;;13.55;75.58
54554;BME280;40450;55.848;-3.572;2023-07-02T06:23:54;98231.75;;;12.82;77.44
54554;BME280;40450;55.848;-3.572;2023-07-02T06:26:29;98223.46;;;13.52;75.66
54554;BME280;40450;55.848;-3.572;2023-07-02T06:28:57;98231.46;;;12.74;77.83
54554;BME280;40450;55.848;-3.572;2023-07-02T06:31:26;98223.50;;;13.47;76.13
54554;BME280;40450;55.848;-3.572;2023-07-02T06:33:56;98227.74;;;12.27;79.99
54554;BME280;40450;55.848;-3.572;2023-07-02T06:36:25;98229.97;;;12.57;79.27
54554;BME280;40450;55.848;-3.572;2023-07-02T06:39:01;98217.01;;;13.00;78.16
54554;BME280;40450;55.848;-3.572;2023-07-02T06:43:56;98225.64;;;12.45;80.11
54554;BME280;40450;55.848;-3.572;2023-07-02T06:46:27;98221.74;;;12.26;80.76
54554;BME280;40450;55.848;-3.572;2023-07-02T06:48:58;98215.79;;;13.05;78.75
54554;BME280;40450;55.848;-3.572;2023-07-02T06:53:59;98224.58;;;12.53;80.59
54554;BME280;40450;55.848;-3.572;2023-07-02T06:56:30;98224.30;;;12.60;80.46
54554;BME280;40450;55.848;-3.572;2023-07-02T06:59:04;98229.19;;;11.95;81.61
54554;BME280;40450;55.848;-3.572;2023-07-02T07:01:32;98228.68;;;11.68;82.19
54554;BME280;40450;55.848;-3.572;2023-07-02T07:04:02;98217.82;;;12.50;78.85
54554;BME280;40450;55.848;-3.572;2023-07-02T07:09:00;98220.92;;;12.82;79.64
54554;BME280;40450;55.848;-3.572;2023-07-02T07:11:33;98227.51;;;13.32;77.61
54554;BME280;40450;55.848;-3.572;2023-07-02T07:14:07;98223.91;;;12.62;80.33
54554;BME280;40450;55.848;-3.572;2023-07-02T07:16:40;98222.68;;;13.20;77.85
54554;BME280;40450;55.848;-3.572;2023-07-02T07:19:02;98222.00;;;12.81;79.71
54554;BME280;40450;55.848;-3.572;2023-07-02T07:21:38;98221.91;;;13.81;76.09
54554;BME280;40450;55.848;-3.572;2023-07-02T07:24:02;98217.84;;;13.28;77.08
54554;BME280;40450;55.848;-3.572;2023-07-02T07:26:34;98231.66;;;12.98;77.35
54554;BME280;40450;55.848;-3.572;2023-07-02T07:29:06;98227.92;;;13.27;77.40
54554;BME280;40450;55.848;-3.572;2023-07-02T07:31:33;98231.80;;;13.39;75.57
54554;BME280;40450;55.848;-3.572;2023-07-02T07:34:03;98232.18;;;12.87;77.03
54554;BME280;40450;55.848;-3.572;2023-07-02T07:39:05;98234.70;;;12.71;76.55
54554;BME280;40450;55.848;-3.572;2023-07-02T07:41:34;98238.10;;;12.60;75.82
54554;BME280;40450;55.848;-3.572;2023-07-02T07:44:10;98245.89;;;11.60;79.34
54554;BME280;40450;55.848;-3.572;2023-07-02T07:46:36;98247.48;;;11.24;80.36
54554;BME280;40450;55.848;-3.572;2023-07-02T07:49:06;98241.95;;;11.26;81.61
54554;BME280;40450;55.848;-3.572;2023-07-02T07:51:36;98239.81;;;10.86;82.78
54554;BME280;40450;55.848;-3.572;2023-07-02T07:54:06;98244.74;;;11.50;82.33
54554;BME280;40450;55.848;-3.572;2023-07-02T07:56:39;98243.38;;;12.23;81.08
54554;BME280;40450;55.848;-3.572;2023-07-02T07:59:06;98241.05;;;12.63;79.63
54554;BME280;40450;55.848;-3.572;2023-07-02T08:01:38;98244.29;;;12.99;77.18
54554;BME280;40450;55.848;-3.572;2023-07-02T08:04:08;98238.87;;;12.51;77.69
54554;BME280;40450;55.848;-3.572;2023-07-02T08:06:39;98242.80;;;13.54;76.89
54554;BME280;40450;55.848;-3.572;2023-07-02T08:09:13;98243.17;;;13.22;77.48
54554;BME280;40450;55.848;-3.572;2023-07-02T08:11:38;98253.07;;;14.28;74.18
54554;BME280;40450;55.848;-3.572;2023-07-02T08:14:10;98244.74;;;14.41;73.18
54554;BME280;40450;55.848;-3.572;2023-07-02T08:19:10;98255.55;;;14.12;73.45
54554;BME280;40450;55.848;-3.572;2023-07-02T08:21:45;98249.95;;;14.48;72.17
54554;BME280;40450;55.848;-3.572;2023-07-02T08:24:11;98268.38;;;14.16;75.37
54554;BME280;40450;55.848;-3.572;2023-07-02T08:26:42;98272.13;;;13.12;80.81
54554;BME280;40450;55.848;-3.572;2023-07-02T08:29:18;98272.31;;;12.62;82.64
54554;BME280;40450;55.848;-3.572;2023-07-02T08:31:41;98272.02;;;12.15;84.48
54554;BME280;40450;55.848;-3.572;2023-07-02T08:34:11;98270.63;;;12.85;81.81
54554;BME280;40450;55.848;-3.572;2023-07-02T08:36:42;98262.70;;;13.16;81.64
54554;BME280;40450;55.848;-3.572;2023-07-02T08:39:12;98264.74;;;12.88;82.39
54554;BME280;40450;55.848;-3.572;2023-07-02T08:41:43;98269.13;;;13.24;81.39
54554;BME280;40450;55.848;-3.572;2023-07-02T08:44:14;98262.12;;;13.42;81.29
54554;BME280;40450;55.848;-3.572;2023-07-02T08:46:48;98265.26;;;13.86;80.61
54554;BME280;40450;55.848;-3.572;2023-07-02T08:49:15;98263.66;;;13.84;80.42
54554;BME280;40450;55.848;-3.572;2023-07-02T08:51:46;98264.17;;;13.01;83.70
54554;BME280;40450;55.848;-3.572;2023-07-02T08:54:18;98267.06;;;14.14;79.15
54554;BME280;40450;55.848;-3.572;2023-07-02T08:56:52;98262.01;;;13.67;81.59
54554;BME280;40450;55.848;-3.572;2023-07-02T08:59:17;98259.49;;;13.31;81.86
54554;BME280;40450;55.848;-3.572;2023-07-02T09:01:47;98267.27;;;12.09;84.28
54554;BME280;40450;55.848;-3.572;2023-07-02T09:04:19;98260.17;;;12.41;83.77
54554;BME280;40450;55.848;-3.572;2023-07-02T09:06:50;98258.58;;;13.50;79.93
54554;BME280;40450;55.848;-3.572;2023-07-02T09:09:17;98256.37;;;13.38;79.87
54554;BME280;40450;55.848;-3.572;2023-07-02T09:11:48;98246.67;;;13.46;78.67
54554;BME280;40450;55.848;-3.572;2023-07-02T09:14:25;98250.17;;;12.92;80.75
54554;BME280;40450;55.848;-3.572;2023-07-02T09:16:49;98249.32;;;12.33;83.67
54554;BME280;40450;55.848;-3.572;2023-07-02T09:19:21;98242.24;;;12.96;82.16
54554;BME280;40450;55.848;-3.572;2023-07-02T09:21:52;98245.69;;;12.72;82.82
54554;BME280;40450;55.848;-3.572;2023-07-02T09:26:51;98240.56;;;11.35;83.13
54554;BME280;40450;55.848;-3.572;2023-07-02T09:29:22;98245.89;;;12.21;81.76
54554;BME280;40450;55.848;-3.572;2023-07-02T09:31:52;98250.23;;;13.55;77.93
54554;BME280;40450;55.848;-3.572;2023-07-02T09:34:28;98252.78;;;12.41;77.24
54554;BME280;40450;55.848;-3.572;2023-07-02T09:36:53;98258.33;;;12.25;78.30
54554;BME280;40450;55.848;-3.572;2023-07-02T09:39:28;98255.90;;;12.31;79.81
54554;BME280;40450;55.848;-3.572;2023-07-02T09:41:52;98259.34;;;11.58;81.33
54554;BME280;40450;55.848;-3.572;2023-07-02T09:44:25;98253.24;;;12.69;77.77
54554;BME280;40450;55.848;-3.572;2023-07-02T09:46:58;98248.31;;;13.51;77.70
54554;BME280;40450;55.848;-3.572;2023-07-02T09:49:27;98259.08;;;13.88;74.34
54554;BME280;40450;55.848;-3.572;2023-07-02T09:51:54;98247.29;;;13.96;75.09
54554;BME280;40450;55.848;-3.572;2023-07-02T09:54:25;98238.89;;;14.60;72.92
54554;BME280;40450;55.848;-3.572;2023-07-02T09:56:57;98240.23;;;13.45;75.54
54554;BME280;40450;55.848;-3.572;2023-07-02T09:59:25;98238.09;;;13.06;75.18
54554;BME280;40450;55.848;-3.572;2023-07-02T10:01:55;98224.87;;;14.67;72.51
54554;BME280;40450;55.848;-3.572;2023-07-02T10:04:43;98218.88;;;15.06;71.56
54554;BME280;40450;55.848;-3.572;2023-07-02T10:11:57;98257.57;;;13.74;73.30
54554;BME280;40450;55.848;-3.572;2023-07-02T10:14:26;98278.43;;;12.46;82.57
54554;BME280;40450;55.848;-3.572;2023-07-02T10:16:58;98279.03;;;11.07;88.04
54554;BME280;40450;55.848;-3.572;2023-07-02T10:19:27;98280.87;;;12.34;85.14
54554;BME280;40450;55.848;-3.572;2023-07-02T10:22:02;98289.00;;;11.15;89.61
54554;BME280;40450;55.848;-3.572;2023-07-02T10:24:28;98293.46;;;11.19;89.10
54554;BME280;40450;55.848;-3.572;2023-07-02T10:27:01;98293.07;;;10.38;91.42
54554;BME280;40450;55.848;-3.572;2023-07-02T10:29:29;98287.33;;;9.99;92.12
54554;BME280;40450;55.848;-3.572;2023-07-02T10:31:59;98281.13;;;11.44;89.18
54554;BME280;40450;55.848;-3.572;2023-07-02T10:34:30;98287.12;;;11.13;91.51
54554;BME280;40450;55.848;-3.572;2023-07-02T10:37:01;98286.51;;;12.29;88.39
54554;BME280;40450;55.848;-3.572;2023-07-02T10:39:31;98287.00;;;12.21;87.51
54554;BME280;40450;55.848;-3.572;2023-07-02T10:42:06;98283.66;;;12.52;85.83
54554;BME280;40450;55.848;-3.572;2023-07-02T10:44:31;98283.17;;;12.81;87.90
54554;BME280;40450;55.848;-3.572;2023-07-02T10:47:04;98283.74;;;12.57;86.82
54554;BME280;40450;55.848;-3.572;2023-07-02T10:49:33;98282.61;;;13.01;86.82
54554;BME280;40450;55.848;-3.572;2023-07-02T10:54:38;98292.15;;;12.57;86.89
54554;BME280;40450;55.848;-3.572;2023-07-02T10:57:03;98278.55;;;11.72;89.03
54554;BME280;40450;55.848;-3.572;2023-07-02T10:59:33;98270.83;;;13.14;86.56
54554;BME280;40450;55.848;-3.572;2023-07-02T11:02:03;98273.69;;;12.32;87.76
54554;BME280;40450;55.848;-3.572;2023-07-02T11:04:34;98270.48;;;12.33;87.06
54554;BME280;40450;55.848;-3.572;2023-07-02T11:07:04;98263.83;;;11.60;89.83
54554;BME280;40450;55.848;-3.572;2023-07-02T11:09:34;98265.45;;;10.74;93.55
54554;BME280;40450;55.848;-3.572;2023-07-02T11:12:06;98258.22;;;11.64;91.01
54554;BME280;40450;55.848;-3.572;2023-07-02T11:14:36;98261.47;;;12.50;87.35
54554;BME280;40450;55.848;-3.572;2023-07-02T11:17:06;98262.44;;;12.12;86.67
54554;BME280;40450;55.848;-3.572;2023-07-02T11:19:36;98253.58;;;12.62;85.80
54554;BME280;40450;55.848;-3.572;2023-07-02T11:22:06;98239.77;;;12.73;86.42
54554;BME280;40450;55.848;-3.572;2023-07-02T11:24:37;98244.78;;;13.16;85.60
54554;BME280;40450;55.848;-3.572;2023-07-02T11:27:07;98251.23;;;13.86;84.26
54554;BME280;40450;55.848;-3.572;2023-07-02T11:29:37;98262.96;;;14.08;82.60
54554;BME280;40450;55.848;-3.572;2023-07-02T11:32:08;98290.26;;;12.22;90.76
54554;BME280;40450;55.848;-3.572;2023-07-02T11:34:52;98295.69;;;10.10;95.76
54554;BME280;40450;55.848;-3.572;2023-07-02T11:37:08;98300.23;;;8.62;99.19
54554;BME280;40450;55.848;-3.572;2023-07-02T11:39:38;98294.14;;;9.88;96.45
54554;BME280;40450;55.848;-3.572;2023-07-02T11:42:09;98285.61;;;9.57;98.97
54554;BME280;40450;55.848;-3.572;2023-07-02T11:44:40;98276.80;;;11.47;95.35
54554;BME280;40450;55.848;-3.572;2023-07-02T11:47:11;98275.11;;;11.04;97.01
54554;BME280;40450;55.848;-3.572;2023-07-02T11:49:40;98276.75;;;12.06;95.14
54554;BME280;40450;55.848;-3.572;2023-07-02T11:52:10;98268.81;;;12.25;94.84
54554;BME280;40450;55.848;-3.572;2023-07-02T11:54:40;98279.76;;;12.80;91.60
54554;BME280;40450;55.848;-3.572;2023-07-02T11:57:11;98263.94;;;11.57;92.64
54554;BME280;40450;55.848;-3.572;2023-07-02T11:59:41;98262.91;;;12.85;91.13
54554;BME280;40450;55.848;-3.572;2023-07-02T12:02:11;98261.59;;;13.76;89.16
54554;BME280;40450;55.848;-3.572;2023-07-02T12:04:42;98261.55;;;14.05;84.45
54554;BME280;40450;55.848;-3.572;2023-07-02T12:07:13;98259.74;;;13.58;86.47
54554;BME280;40450;55.848;-3.572;2023-07-02T12:09:42;98259.89;;;13.27;88.42
54554;BME280;40450;55.848;-3.572;2023-07-02T12:12:13;98256.47;;;13.37;87.15
54554;BME280;40450;55.848;-3.572;2023-07-02T12:14:43;98250.02;;;13.23;89.55
54554;BME280;40450;55.848;-3.572;2023-07-02T12:17:14;98257.79;;;14.06;83.44
54554;BME280;40450;55.848;-3.572;2023-07-02T12:19:44;98246.19;;;12.69;85.07
54554;BME280;40450;55.848;-3.572;2023-07-02T12:22:14;98251.66;;;12.57;87.57
54554;BME280;40450;55.848;-3.572;2023-07-02T12:24:44;98249.79;;;13.42;84.13
54554;BME280;40450;55.848;-3.572;2023-07-02T12:27:15;98249.16;;;13.79;79.38
54554;BME280;40450;55.848;-3.572;2023-07-02T12:29:45;98257.00;;;13.98;80.64
54554;BME280;40450;55.848;-3.572;2023-07-02T12:32:15;98288.72;;;13.17;79.30
54554;BME280;40450;55.848;-3.572;2023-07-02T12:34:51;98281.93;;;11.72;85.82
54554;BME280;40450;55.848;-3.572;2023-07-02T12:37:16;98279.76;;;11.95;87.79
54554;BME280;40450;55.848;-3.572;2023-07-02T12:39:48;98277.30;;;12.56;87.80
54554;BME280;40450;55.848;-3.572;2023-07-02T12:42:16;98272.27;;;12.57;87.13
54554;BME280;40450;55.848;-3.572;2023-07-02T12:44:49;98277.75;;;12.05;87.32
54554;BME280;40450;55.848;-3.572;2023-07-02T12:47:17;98278.40;;;12.70;87.95
54554;BME280;40450;55.848;-3.572;2023-07-02T12:49:47;98276.07;;;12.78;85.67
54554;BME280;40450;55.848;-3.572;2023-07-02T12:52:18;98272.44;;;12.63;85.36
54554;BME280;40450;55.848;-3.572;2023-07-02T12:54:48;98264.08;;;13.52;83.87
54554;BME280;40450;55.848;-3.572;2023-07-02T12:57:18;98272.51;;;13.87;84.93
54554;BME280;40450;55.848;-3.572;2023-07-02T12:59:49;98269.08;;;14.04;82.04
54554;BME280;40450;55.848;-3.572;2023-07-02T13:02:19;98273.64;;;13.49;83.49
54554;BME280;40450;55.848;-3.572;2023-07-02T13:04:50;98275.57;;;13.87;83.00
54554;BME280;40450;55.848;-3.572;2023-07-02T13:07:20;98271.17;;;13.92;82.81
54554;BME280;40450;55.848;-3.572;2023-07-02T13:09:51;98264.73;;;13.55;80.98
54554;BME280;40450;55.848;-3.572;2023-07-02T13:12:21;98260.76;;;12.32;85.67
54554;BME280;40450;55.848;-3.572;2023-07-02T13:14:51;98252.78;;;13.46;80.80
54554;BME280;40450;55.848;-3.572;2023-07-02T13:17:21;98265.29;;;14.18;78.84
54554;BME280;40450;55.848;-3.572;2023-07-02T13:19:52;98257.34;;;14.26;79.56
54554;BME280;40450;55.848;-3.572;2023-07-02T13:22:22;98255.71;;;14.19;80.64
54554;BME280;40450;55.848;-3.572;2023-07-02T13:24:52;98245.11;;;14.69;78.95
54554;BME280;40450;55.848;-3.572;2023-07-02T13:27:23;98242.51;;;14.92;77.17